• Join FlightAware (Why Join?)
  • Login
  • US Flag 
03:15PM EST


 

Airport Tracker/Info


-or-


 

Live Flight TrackerFlight Track Log ✈ N70AG ✈ 16-May-2013 ✈ KSAN - KLAS

Flight Track Log - Related Links

Times and Time Zones

All times are in EDT time to prevent confusion due to time zone crossing. See the N70AG flight status page for this flight to view local times or setup timezone preferences in your user account.

Time Position Orientation Groundspeed Altitude Reporting Facility
EDT Latitude Longitude Course Direction KTS MPH feet Rate Location/Type
03:37PM 32.7461 -117.2258 307° West 182 209 2,300  Level Los Angeles Center
03:38PM 32.7839 -117.2856 307° West 232 267 6,200 3,720 Climbing Los Angeles Center
03:39PM 32.8283 -117.3461 311° West 261 300 10,100 3,480 Climbing Los Angeles Center
03:40PM 32.8994 -117.4436 311° West 330 380 13,400 3,240 Climbing Los Angeles Center
03:41PM 32.9656 -117.5358 311° West 359 413 16,800 3,120 Climbing Los Angeles Center
03:42PM 33.0350 -117.6331 310° West 377 434 19,900 2,880 Climbing Los Angeles Center
03:43PM 33.1083 -117.7336 311° West 397 457 22,800 1,740 Climbing Los Angeles Center
03:44PM 33.1819 -117.8419 309° West 417 480 23,600 1,560 Climbing Los Angeles Center
03:45PM 33.2267 -117.9703 293° West 415 478 26,400 1,440 Climbing Los Angeles Center
03:46PM 33.3100 -118.1064 306° West 441 507 27,000 240 Climbing Los Angeles Center
03:47PM 33.4572 -118.0803 North 471 542 27,000  Level Los Angeles Center
03:48PM 33.5769 -118.0244 21° North 468 539 27,000  Level Los Angeles Center
03:50PM 33.6969 -117.9664 22° Northeast 471 542 27,000  Level Los Angeles Center
03:51PM 33.8414 -117.8992 21° North 470 541 27,000  Level Los Angeles Center
03:52PM 33.9625 -117.8414 22° Northeast 471 542 27,000  Level Los Angeles Center
03:53PM 34.0789 -117.7714 26° Northeast 471 542 27,000  Level Los Angeles Center
03:54PM 34.1744 -117.6597 44° Northeast 478 550 27,000  Level Los Angeles Center
03:55PM 34.2972 -117.4908 49° Northeast 479 551 27,000  Level Los Angeles Center
03:56PM 34.3858 -117.3703 48° Northeast 480 552 27,000  Level Los Angeles Center
03:57PM 34.4675 -117.2586 48° Northeast 482 555 27,000  Level Los Angeles Center
03:58PM 34.5547 -117.1372 49° Northeast 481 554 27,000  Level Los Angeles Center
03:59PM 34.6597 -116.9922 49° Northeast 481 554 27,000  Level Los Angeles Center
04:00PM 34.7486 -116.8706 48° Northeast 485 558 27,000 -300 Level Los Angeles Center
04:01PM 34.8364 -116.7489 49° Northeast 483 556 26,500 -720 Descending Los Angeles Center
04:02PM 34.9228 -116.6278 49° Northeast 478 550 25,600 -840 Descending Los Angeles Center
04:03PM 35.0128 -116.5106 47° Northeast 475 547 24,800 -780 Descending Los Angeles Center
04:04PM 35.1208 -116.3772 45° Northeast 466 536 24,000 -420 Descending Los Angeles Center
04:05PM 35.2103 -116.2639 46° Northeast 464 534 24,000 -1,020 Level Los Angeles Center
04:06PM 35.2986 -116.1522 46° Northeast 459 528 21,900 -1,860 Descending Los Angeles Center
04:07PM 35.3667 -116.0644 46° Northeast 450 518 20,200 -2,040 Descending Los Angeles Center
04:08PM 35.4678 -115.9403 45° Northeast 431 496 17,800 -2,160 Descending Los Angeles Center
04:09PM 35.5525 -115.8311 46° Northeast 418 481 15,700 -2,220 Descending Los Angeles Center
04:10PM 35.5950 -115.7803 44° Northeast 399 459 14,700 -2,040 Descending Los Angeles Center
04:10PM 35.6400 -115.7211 47° Northeast 383 441 13,600 -1,560 Descending Los Angeles Center
04:11PM 35.6544 -115.7056 41° Northeast 368 423 13,300 -600 Descending Los Angeles Center
04:11PM 35.7053 -115.6383 47° Northeast 349 402 13,000 -300 Descending Los Angeles Center
04:12PM 35.7314 -115.6122 39° Northeast 328 377 13,000  Level Los Angeles Center
04:12PM 35.7850 -115.5792 27° Northeast 317 365 13,000  Level Los Angeles Center
04:13PM 35.8156 -115.5717 11° North 305 351 13,000  Level Los Angeles Center
04:14PM 35.8692 -115.5675 North 303 349 13,000  Level Los Angeles Center
04:14PM 35.9011 -115.5681 359° North 302 348 13,000  Level Los Angeles Center
04:15PM 35.9694 -115.5247 27° Northeast 294 338 13,000 -600 Level Los Angeles Center
04:16PM 36.0100 -115.4419 59° Northeast 281 323 11,900 -1,200 Descending Los Angeles Center
04:17PM 36.0294 -115.3525 75° East 274 315 10,700 -1,140 Descending Los Angeles Center
04:18PM 36.0219 -115.2589 96° East 272 313 9,600 -1,320 Descending Los Angeles Center
04:19PM 36.0161 -115.1694 95° East 268 308 8,000 -780 Descending Los Angeles Center
04:20PM 36.0119 -115.0917 94° East 248 285 8,000 -600 Level Los Angeles Center
04:21PM 36.0506 -115.0408 47° Northeast 211 243 6,800 -1,140 Descending Los Angeles Center
04:22PM 36.1056 -115.0094 25° Northeast 211 243 5,600 -1,320 Descending Los Angeles Center
04:23PM 36.1339 -115.0667 302° West 185 213 4,100 -1,200 Descending Los Angeles Center
04:24PM 36.1458 -115.1169 286° West 184 212 3,200 -780 Descending Los Angeles Center
04:25PM 36.1169 -115.1458 219° Southwest 150 173 2,500 -720 Descending Los Angeles Center
04:27PM 36.0801 -115.1523 270° West  Level Estimated
04:34PM 36.0801 -115.1523 270° West  Level Estimated